Time;durP1;ratioP1;P1;durP2;ratioP2;P2;SDS_P1;SDS_P2;PMS_P1;PMS_P2;Temp;Humidity;BMP_temperature;BMP_pressure;BME280_temperature;BME280_humidity;BME280_pressure;Samples;Min_cycle;Max_cycle;Signal;HPM_P1;HPM_P2
2021/12/07 00:01:39;;;;;;;18.17;10.75;;;;;;;-0.62;93.66;95920.75;10392144;28;97343;-65
2021/12/07 00:06:44;;;;;;;14.65;9.50;;;;;;;-0.66;93.91;95923.59;10391324;28;97039;-64
2021/12/07 00:11:48;;;;;;;19.43;11.67;;;;;;;-0.69;93.84;95934.03;10410847;28;97029;-65
2021/12/07 00:16:53;;;;;;;15.95;9.45;;;;;;;-0.67;94.03;95907.38;10404958;28;96997;-65
2021/12/07 00:21:57;;;;;;;15.15;9.25;;;;;;;-0.60;93.77;95918.09;10401260;27;97865;-65
2021/12/07 00:27:00;;;;;;;15.25;8.95;;;;;;;-0.65;93.71;95933.78;10395992;27;99047;-65
2021/12/07 00:32:18;;;;;;;14.85;8.77;;;;;;;-0.64;93.92;95912.31;10412755;27;98431;-65
2021/12/07 00:37:22;;;;;;;14.75;8.80;;;;;;;-0.65;94.10;95920.09;10412556;27;96861;-65
2021/12/07 00:42:25;;;;;;;15.05;8.82;;;;;;;-0.63;94.34;95934.53;10407703;28;97944;-65
2021/12/07 00:47:28;;;;;;;14.93;9.57;;;;;;;-0.68;93.98;95930.53;10409748;28;97066;-65
2021/12/07 00:52:32;;;;;;;16.08;9.65;;;;;;;-0.69;94.13;95959.69;10410522;27;98975;-64
2021/12/07 00:57:35;;;;;;;14.48;8.98;;;;;;;-0.67;94.16;95950.16;10406182;27;98607;-64
2021/12/07 01:02:38;;;;;;;13.70;8.98;;;;;;;-0.61;93.83;95958.34;10402611;27;98461;-65
2021/12/07 01:07:59;;;;;;;13.93;9.27;;;;;;;-0.55;94.05;95957.16;10407691;28;101206;-65
2021/12/07 01:29:04;;;;;;;16.48;10.23;;;;;;;-0.54;93.72;95989.63;10400406;28;96970;-65
2021/12/07 01:34:22;;;;;;;17.02;10.32;;;;;;;-0.61;93.69;95989.13;10398655;28;97281;-64
2021/12/07 01:39:49;;;;;;;15.73;10.18;;;;;;;-0.60;93.66;95992.50;10391498;28;97098;-65
2021/12/07 01:45:24;;;;;;;17.33;10.48;;;;;;;-0.66;93.61;96005.69;10398707;28;100244;-64
2021/12/07 02:01:07;;;;;;;19.27;11.73;;;;;;;-0.59;93.68;95992.44;10397087;28;98824;-64
2021/12/07 02:06:12;;;;;;;16.88;10.55;;;;;;;-0.64;93.76;96012.38;10395376;28;98528;-63
2021/12/07 02:11:16;;;;;;;15.70;9.23;;;;;;;-0.67;94.02;96004.03;10397337;28;99818;-64
2021/12/07 02:16:21;;;;;;;16.35;10.40;;;;;;;-0.64;93.54;95998.75;10401375;28;98813;-65
2021/12/07 02:21:27;;;;;;;13.90;8.77;;;;;;;-0.59;93.20;96009.56;10397288;28;97087;-64
2021/12/07 02:26:30;;;;;;;14.63;9.32;;;;;;;-0.55;93.19;96013.63;10398635;27;97114;-64
2021/12/07 02:31:33;;;;;;;13.00;8.25;;;;;;;-0.48;93.17;96025.19;10409706;28;99409;-65
2021/12/07 02:36:39;;;;;;;14.00;8.93;;;;;;;-0.42;93.07;96014.59;10398636;28;99302;-65
2021/12/07 02:41:42;;;;;;;10.52;6.93;;;;;;;-0.46;92.92;96028.50;10394243;27;97513;-65
2021/12/07 02:46:45;;;;;;;13.73;8.80;;;;;;;-0.55;92.69;96029.00;10392412;27;97136;-65
2021/12/07 02:51:50;;;;;;;12.02;7.82;;;;;;;-0.53;92.69;96047.72;10392663;27;97742;-65
2021/12/07 02:56:53;;;;;;;12.97;7.83;;;;;;;-0.56;92.35;96042.75;10390890;27;97930;-64
2021/12/07 03:02:01;;;;;;;12.77;8.43;;;;;;;-0.59;92.10;96050.63;10401931;28;96837;-65
2021/12/07 03:07:14;;;;;;;12.48;8.02;;;;;;;-0.62;92.14;96043.09;10393036;27;98878;-65
2021/12/07 03:28:20;;;;;;;10.65;6.97;;;;;;;-0.79;92.07;96073.06;10398008;28;96826;-64
2021/12/07 03:33:23;;;;;;;11.73;7.97;;;;;;;-0.78;92.03;96079.00;10398535;28;98663;-65
2021/12/07 03:38:27;;;;;;;13.40;8.60;;;;;;;-0.78;92.34;96090.09;10385480;28;102336;-65
2021/12/07 03:43:31;;;;;;;12.27;7.60;;;;;;;-0.87;91.88;96067.50;10402006;28;96936;-65
2021/12/07 03:48:36;;;;;;;12.57;8.30;;;;;;;-0.95;91.63;96092.72;10392592;28;97955;-64
2021/12/07 03:53:40;;;;;;;11.18;7.22;;;;;;;-0.91;92.25;96086.50;10396109;27;96787;-64
2021/12/07 03:58:43;;;;;;;12.38;7.60;;;;;;;-0.93;92.24;96090.91;10408268;28;97036;-65
2021/12/07 04:03:46;;;;;;;12.48;7.50;;;;;;;-0.91;92.15;96064.28;10388844;28;96898;-65
2021/12/07 04:08:50;;;;;;;11.43;7.18;;;;;;;-0.92;92.18;96077.19;10391836;28;99340;-65
2021/12/07 04:13:53;;;;;;;14.70;7.97;;;;;;;-0.89;92.45;96074.47;10405751;27;96818;-65
2021/12/07 04:18:56;;;;;;;11.23;7.00;;;;;;;-0.86;92.56;96069.16;10383673;28;97571;-65
2021/12/07 04:24:00;;;;;;;11.05;7.47;;;;;;;-0.93;92.22;96071.25;10399442;28;96873;-65
2021/12/07 04:29:03;;;;;;;11.98;7.78;;;;;;;-0.97;92.20;96053.53;10396415;28;98918;-64
2021/12/07 04:34:06;;;;;;;10.98;7.68;;;;;;;-0.99;92.33;96055.34;10406113;28;96926;-64
2021/12/07 04:39:10;;;;;;;12.57;7.90;;;;;;;-0.96;92.46;96047.47;10399767;28;97421;-64
2021/12/07 04:44:13;;;;;;;13.65;8.20;;;;;;;-0.97;92.36;96058.66;10396477;27;96807;-64
2021/12/07 04:49:47;;;;;;;15.03;9.73;;;;;;;-0.96;92.85;96062.84;10396794;28;96977;-64
2021/12/07 05:00:28;;;;;;;;;;;;;;;-0.85;93.13;96070.81;10294415;28;98852;-65
2021/12/07 05:05:35;;;;;;;13.90;7.82;;;;;;;-0.80;92.89;96081.66;10292609;28;97297;-64
2021/12/07 05:11:22;;;;;;;14.13;8.88;;;;;;;-0.74;93.64;96080.50;10293941;28;96972;-64
2021/12/07 05:16:23;;;;;;;12.63;8.32;;;;;;;-0.73;93.53;96084.72;10312453;28;97189;-64
2021/12/07 05:37:48;;;;;;;14.82;8.90;;;;;;;-0.66;93.02;96091.19;10386691;28;98314;-64
2021/12/07 05:42:54;;;;;;;19.15;9.88;;;;;;;-0.62;93.04;96091.84;10410466;27;98353;-65
2021/12/07 05:47:58;;;;;;;14.57;8.43;;;;;;;-0.65;93.34;96086.88;10399974;27;99082;-65
2021/12/07 05:53:00;;;;;;;10.48;6.65;;;;;;;-0.66;93.64;96077.53;10410806;27;97040;-65
2021/12/07 05:58:08;;;;;;;13.43;7.20;;;;;;;-0.65;93.13;96074.88;10404164;27;98521;-65
2021/12/07 06:03:12;;;;;;;9.88;6.88;;;;;;;-0.61;93.56;96086.63;10398127;27;98077;-65
2021/12/07 06:08:15;;;;;;;10.90;6.90;;;;;;;-0.61;93.53;96085.81;10393349;27;97035;-65
2021/12/07 06:13:19;;;;;;;12.00;7.03;;;;;;;-0.61;93.76;96093.50;10405811;28;98139;-64
2021/12/07 06:18:22;;;;;;;10.63;6.43;;;;;;;-0.66;93.64;96092.94;10398007;27;98336;-64
2021/12/07 06:23:25;;;;;;;9.32;6.18;;;;;;;-0.64;93.75;96088.53;10394879;27;97056;-65
2021/12/07 06:28:29;;;;;;;7.80;5.20;;;;;;;-0.60;93.77;96092.56;10399760;27;97604;-65
2021/12/07 06:33:32;;;;;;;7.75;4.78;;;;;;;-0.64;93.90;96083.41;10402268;28;98570;-64
2021/12/07 06:38:36;;;;;;;7.15;4.43;;;;;;;-0.57;93.92;96097.53;10396382;28;98414;-64
2021/12/07 06:43:40;;;;;;;5.82;4.20;;;;;;;-0.58;93.45;96089.03;10392326;28;96734;-64
2021/12/07 06:48:43;;;;;;;6.68;4.10;;;;;;;-0.54;93.74;96082.00;10396942;27;98550;-64
2021/12/07 06:53:46;;;;;;;6.75;4.07;;;;;;;-0.47;93.68;96083.31;10398975;28;96953;-64
2021/12/07 06:58:50;;;;;;;6.57;3.92;;;;;;;-0.38;93.91;96095.63;10395947;28;98558;-65
2021/12/07 07:03:54;;;;;;;5.60;3.50;;;;;;;-0.37;93.45;96097.28;10392883;28;96902;-65
2021/12/07 07:08:57;;;;;;;6.75;3.70;;;;;;;-0.34;93.99;96092.00;10400594;27;96877;-65
2021/12/07 07:14:02;;;;;;;4.95;3.10;;;;;;;-0.31;93.63;96083.28;10393064;27;98453;-64
2021/12/07 07:19:04;;;;;;;5.37;3.73;;;;;;;-0.23;93.58;96090.53;10402028;27;98914;-63
2021/12/07 07:24:07;;;;;;;4.68;3.05;;;;;;;-0.18;93.88;96099.66;10400266;27;97587;-65
2021/12/07 07:29:12;;;;;;;5.80;3.55;;;;;;;-0.15;93.16;96099.50;10397038;28;98451;-65
2021/12/07 07:34:15;;;;;;;6.03;3.50;;;;;;;-0.09;93.26;96082.91;10397729;28;98633;-65
2021/12/07 07:39:18;;;;;;;5.88;3.50;;;;;;;0.00;93.22;96082.41;10404069;27;98324;-65
2021/12/07 07:44:22;;;;;;;5.82;3.60;;;;;;;0.06;92.82;96086.34;10400972;27;99675;-65
2021/12/07 07:49:25;;;;;;;4.28;3.17;;;;;;;0.02;93.27;96090.84;10402688;28;98357;-64
2021/12/07 07:54:29;;;;;;;8.60;4.70;;;;;;;0.04;92.93;96099.28;10405121;28;96875;-65
2021/12/07 07:59:33;;;;;;;10.80;5.72;;;;;;;0.12;92.90;96100.59;10399102;28;97309;-65
2021/12/07 08:04:36;;;;;;;11.43;6.10;;;;;;;0.27;93.07;96104.03;10401956;27;96843;-65
2021/12/07 08:09:39;;;;;;;10.55;5.68;;;;;;;0.40;93.38;96103.22;10401198;27;97222;-64
2021/12/07 08:14:43;;;;;;;8.65;4.88;;;;;;;0.47;93.52;96101.13;10402713;27;98033;-65
2021/12/07 08:19:46;;;;;;;8.60;5.10;;;;;;;0.56;93.12;96104.91;10391193;28;96937;-65
2021/12/07 08:24:50;;;;;;;8.02;4.80;;;;;;;0.73;94.12;96091.88;10401013;27;101218;-65
2021/12/07 08:29:54;;;;;;;7.10;4.28;;;;;;;0.78;94.73;96099.34;10406241;28;98415;-65
2021/12/07 08:34:57;;;;;;;7.35;4.60;;;;;;;0.96;94.44;96102.53;10405354;27;98613;-65
2021/12/07 08:40:00;;;;;;;6.07;4.50;;;;;;;0.90;94.48;96095.22;10407189;27;98650;-65
2021/12/07 08:45:06;;;;;;;6.93;4.88;;;;;;;0.84;93.44;96077.56;10409138;27;97540;-64
2021/12/07 08:50:13;;;;;;;6.03;4.30;;;;;;;0.74;93.74;96078.13;10400740;27;97874;-65
2021/12/07 09:00:40;;;;;;;9.23;5.50;;;;;;;0.50;93.07;96077.00;10410402;27;97131;-65
2021/12/07 09:05:43;;;;;;;9.32;5.30;;;;;;;0.50;92.85;96074.44;10413851;27;97140;-64
2021/12/07 09:10:46;;;;;;;7.30;4.40;;;;;;;0.50;93.15;96075.25;10411422;28;96904;-65
2021/12/07 09:15:51;;;;;;;8.27;4.82;;;;;;;0.37;92.78;96064.03;10401684;27;96888;-65
2021/12/07 09:20:56;;;;;;;8.23;5.57;;;;;;;0.53;92.64;96067.38;10401793;28;97282;-64
2021/12/07 09:25:59;;;;;;;5.55;4.45;;;;;;;0.66;92.46;96051.22;10402776;28;99502;-65
2021/12/07 09:31:04;;;;;;;8.43;5.53;;;;;;;0.67;92.21;96046.00;10400949;27;96866;-65
2021/12/07 09:36:08;;;;;;;7.55;4.65;;;;;;;0.73;91.62;96035.31;10403559;27;96996;-65
2021/12/07 09:41:12;;;;;;;6.70;4.13;;;;;;;0.77;91.94;96035.97;10401342;27;98367;-65
2021/12/07 09:46:17;;;;;;;5.78;3.88;;;;;;;0.92;92.05;96021.34;10410187;27;97002;-66
2021/12/07 09:51:23;;;;;;;7.93;4.77;;;;;;;0.93;91.47;96013.56;10400369;28;98466;-64
2021/12/07 09:56:27;;;;;;;6.32;3.88;;;;;;;0.76;91.87;96009.44;10407435;27;97002;-64
2021/12/07 10:01:32;;;;;;;5.68;4.00;;;;;;;0.87;92.41;95992.53;10394152;28;96988;-65
2021/12/07 10:06:36;;;;;;;6.43;4.13;;;;;;;0.69;92.45;95992.72;10398705;27;96801;-65
2021/12/07 10:11:39;;;;;;;6.90;4.35;;;;;;;0.83;92.56;95978.19;10400930;28;98491;-65
2021/12/07 10:16:47;;;;;;;5.38;3.67;;;;;;;0.95;92.50;95973.13;10405955;27;96871;-64
2021/12/07 10:22:01;;;;;;;8.30;3.75;;;;;;;0.95;92.76;95962.03;10412412;27;98070;-65
2021/12/07 10:27:04;;;;;;;6.78;4.05;;;;;;;1.08;91.94;95957.72;10408175;27;97267;-65
2021/12/07 10:32:09;;;;;;;6.57;3.17;;;;;;;1.02;92.54;95947.84;10417214;27;97954;-65
2021/12/07 10:37:14;;;;;;;4.68;2.95;;;;;;;0.94;92.07;95934.63;10408637;27;96883;-65
2021/12/07 10:42:24;;;;;;;5.30;3.60;;;;;;;0.99;92.68;95912.03;10407041;27;100959;-66
2021/12/07 10:47:37;;;;;;;5.50;2.85;;;;;;;1.09;92.01;95907.13;10403220;28;96797;-65
2021/12/07 10:52:42;;;;;;;6.95;3.38;;;;;;;0.96;92.09;95886.50;10397886;27;97287;-65
2021/12/07 10:57:50;;;;;;;4.75;2.80;;;;;;;1.13;92.58;95873.38;10416184;27;99474;-65
2021/12/07 11:02:57;;;;;;;5.97;2.83;;;;;;;1.30;92.15;95858.59;10403570;27;97083;-66
2021/12/07 11:08:01;;;;;;;4.05;2.60;;;;;;;1.47;92.23;95831.72;10405772;27;96846;-65
2021/12/07 11:13:12;;;;;;;4.85;2.60;;;;;;;1.52;92.25;95812.50;10405117;27;96858;-69
2021/12/07 11:18:17;;;;;;;4.85;2.72;;;;;;;1.80;92.03;95790.03;10395610;27;96742;-64
2021/12/07 11:23:22;;;;;;;;;;;;;;;1.89;91.19;95779.09;10412252;27;97040;-65
2021/12/07 11:33:54;;;;;;;3.50;2.10;;;;;;;2.01;91.67;95761.97;10401689;27;96864;-65
2021/12/07 11:38:58;;;;;;;7.47;2.38;;;;;;;2.04;90.68;95746.31;10417854;27;97264;-65
2021/12/07 11:44:03;;;;;;;4.30;1.60;;;;;;;2.03;91.29;95726.59;10398330;27;96828;-66
2021/12/07 11:49:11;;;;;;;6.30;2.25;;;;;;;1.98;90.93;95705.50;10403346;27;98749;-66
2021/12/07 11:54:16;;;;;;;4.47;2.45;;;;;;;2.31;91.34;95699.69;10405757;27;97161;-65
2021/12/07 11:59:20;;;;;;;4.53;2.08;;;;;;;2.57;90.31;95696.97;10405527;28;96896;-65
2021/12/07 12:04:25;;;;;;;4.05;2.00;;;;;;;2.79;88.98;95692.81;10397629;27;98434;-65
2021/12/07 12:09:30;;;;;;;4.18;2.00;;;;;;;2.87;88.88;95687.91;10394104;27;101924;-65
2021/12/07 12:14:51;;;;;;;3.70;1.77;;;;;;;2.72;88.97;95687.31;10399105;27;96797;-64
2021/12/07 12:20:12;;;;;;;3.15;1.80;;;;;;;2.87;89.00;95685.34;10408375;28;97548;-65
2021/12/07 12:25:19;;;;;;;5.28;1.67;;;;;;;2.65;89.58;95653.41;10400382;28;98007;-65
2021/12/07 12:30:25;;;;;;;4.07;1.70;;;;;;;2.81;90.05;95636.81;10394471;27;99405;-66
2021/12/07 12:35:34;;;;;;;4.32;1.83;;;;;;;2.99;90.03;95635.41;10393529;28;96958;-65
2021/12/07 12:40:37;;;;;;;3.58;1.73;;;;;;;3.26;89.54;95613.59;10391687;28;100838;-66
2021/12/07 12:45:43;;;;;;;4.65;2.20;;;;;;;3.28;89.60;95614.28;10403201;28;97117;-65
2021/12/07 12:50:53;;;;;;;3.87;2.20;;;;;;;3.17;89.96;95591.06;10410848;28;97036;-65
2021/12/07 12:55:57;;;;;;;3.78;2.17;;;;;;;3.14;89.96;95573.25;10403766;28;97425;-66
2021/12/07 13:01:10;;;;;;;3.20;2.13;;;;;;;3.03;90.46;95554.25;10380504;28;97381;-66
2021/12/07 13:06:17;;;;;;;4.28;2.47;;;;;;;3.18;90.19;95556.56;10399823;27;102534;-65
2021/12/07 13:11:39;;;;;;;5.45;2.00;;;;;;;3.12;90.16;95539.81;10407355;28;98053;-66
2021/12/07 13:16:50;;;;;;;5.63;2.25;;;;;;;3.16;90.09;95527.50;10398370;28;98669;-66
2021/12/07 13:21:56;;;;;;;3.63;1.92;;;;;;;3.23;90.09;95526.06;10392282;27;97672;-66
2021/12/07 13:26:59;;;;;;;3.17;1.98;;;;;;;3.39;90.39;95512.75;10396471;27;98933;-66
2021/12/07 13:32:05;;;;;;;3.65;1.90;;;;;;;3.44;89.07;95513.22;10403647;27;96846;-65
2021/12/07 13:37:11;;;;;;;2.47;1.33;;;;;;;3.45;89.32;95501.97;10402864;28;96971;-66
2021/12/07 13:42:24;;;;;;;3.15;1.25;;;;;;;3.58;88.89;95496.63;10408431;28;97089;-65
2021/12/07 13:47:29;;;;;;;4.00;1.42;;;;;;;3.38;88.81;95486.13;10412403;28;98092;-65
2021/12/07 13:52:36;;;;;;;5.60;1.42;;;;;;;3.37;88.42;95479.31;10403273;28;97592;-64
2021/12/07 13:57:41;;;;;;;3.70;1.30;;;;;;;3.62;87.01;95477.34;10412057;27;97672;-66
2021/12/07 14:02:49;;;;;;;5.82;1.85;;;;;;;3.34;87.54;95469.22;10410874;27;97260;-66
2021/12/07 14:07:55;;;;;;;4.07;1.63;;;;;;;3.20;88.55;95459.19;10414225;27;98289;-65
2021/12/07 14:13:01;;;;;;;6.15;1.35;;;;;;;3.16;88.54;95456.03;10407052;28;98927;-66
2021/12/07 14:18:07;;;;;;;3.03;1.80;;;;;;;3.20;87.96;95452.25;10405646;27;97137;-66
2021/12/07 14:23:22;;;;;;;4.88;2.20;;;;;;;2.94;88.18;95436.25;10409728;27;101370;-65
2021/12/07 14:28:28;;;;;;;6.45;1.95;;;;;;;3.09;87.94;95430.84;10407652;28;98410;-65
2021/12/07 14:33:31;;;;;;;5.70;2.00;;;;;;;3.20;87.29;95415.31;10400828;27;97255;-65
2021/12/07 14:38:36;;;;;;;4.40;1.90;;;;;;;3.14;87.63;95400.34;10400713;27;97345;-66
2021/12/07 14:43:41;;;;;;;4.18;2.45;;;;;;;2.94;87.76;95402.72;10411203;27;98801;-66
2021/12/07 14:48:46;;;;;;;4.57;2.90;;;;;;;2.85;87.88;95381.06;10398083;28;98715;-65
2021/12/07 14:53:53;;;;;;;3.70;2.90;;;;;;;2.99;87.96;95377.38;10398871;27;97604;-66
2021/12/07 14:58:58;;;;;;;7.80;4.43;;;;;;;2.98;86.76;95380.06;10399167;28;97336;-66
2021/12/07 15:04:05;;;;;;;7.18;4.65;;;;;;;2.77;87.53;95380.84;10401970;27;97034;-65
2021/12/07 15:09:14;;;;;;;10.82;5.53;;;;;;;2.71;87.86;95383.91;10409178;27;98275;-65
2021/12/07 15:14:20;;;;;;;8.98;5.00;;;;;;;2.59;87.43;95385.69;10403162;27;98642;-65
2021/12/07 15:19:24;;;;;;;8.30;4.45;;;;;;;2.55;87.16;95371.41;10390596;27;99158;-65
2021/12/07 15:24:33;;;;;;;8.23;4.53;;;;;;;2.36;87.56;95366.84;10397396;27;97373;-64
2021/12/07 15:29:38;;;;;;;8.27;4.88;;;;;;;2.15;88.49;95360.75;10405768;28;97408;-65
2021/12/07 15:34:43;;;;;;;10.48;5.35;;;;;;;2.18;88.62;95361.38;10397491;27;97347;-65
2021/12/07 15:39:50;;;;;;;37.42;22.77;;;;;;;2.18;88.19;95363.94;10405199;27;97072;-65
2021/12/07 15:44:55;;;;;;;16.77;9.93;;;;;;;2.22;88.44;95362.75;10400029;27;98362;-64
2021/12/07 15:50:00;;;;;;;14.13;7.60;;;;;;;2.15;88.00;95351.28;10399013;27;98334;-64
2021/12/07 15:55:07;;;;;;;9.88;5.65;;;;;;;2.06;88.14;95345.09;10394863;27;97343;-65
2021/12/07 16:00:13;;;;;;;15.32;7.68;;;;;;;1.89;88.16;95351.53;10400072;27;98565;-65
2021/12/07 16:05:15;;;;;;;10.57;5.68;;;;;;;1.88;87.89;95347.28;10399783;27;97584;-66
2021/12/07 16:10:22;;;;;;;8.98;5.60;;;;;;;1.91;88.12;95334.19;10400740;27;101079;-65
2021/12/07 16:15:25;;;;;;;9.57;5.05;;;;;;;1.86;87.68;95328.56;10398745;27;97403;-66
2021/12/07 16:20:29;;;;;;;18.55;11.68;;;;;;;1.79;88.39;95327.41;10393845;27;100223;-65
2021/12/07 16:25:39;;;;;;;9.10;5.85;;;;;;;1.86;87.50;95313.13;10397362;27;97393;-65
2021/12/07 16:31:02;;;;;;;8.60;4.90;;;;;;;1.96;87.94;95287.47;10409681;27;97618;-65
2021/12/07 16:36:06;;;;;;;6.47;4.63;;;;;;;2.02;87.72;95268.16;10405992;27;98951;-66
2021/12/07 16:41:13;;;;;;;6.88;4.65;;;;;;;2.05;87.44;95262.75;10395700;27;96877;-66
2021/12/07 16:46:17;;;;;;;10.15;5.20;;;;;;;2.06;87.01;95260.06;10394496;27;97318;-65
2021/12/07 16:51:20;;;;;;;7.35;4.80;;;;;;;2.01;87.09;95248.47;10393010;28;97164;-64
2021/12/07 16:56:25;;;;;;;11.18;6.93;;;;;;;2.06;86.57;95238.63;10403655;27;97103;-64
2021/12/07 17:01:28;;;;;;;8.88;5.85;;;;;;;2.06;86.68;95218.84;10397520;27;96988;-65
2021/12/07 17:06:31;;;;;;;8.80;5.25;;;;;;;2.04;86.59;95209.59;10400898;28;97257;-66
2021/12/07 17:11:36;;;;;;;8.07;5.15;;;;;;;2.08;87.07;95231.63;10394274;27;98457;-65
2021/12/07 17:16:39;;;;;;;8.67;5.10;;;;;;;2.07;86.61;95235.13;10402741;27;96905;-65
2021/12/07 17:21:42;;;;;;;9.07;4.97;;;;;;;1.92;87.19;95219.94;10408484;27;99094;-64
2021/12/07 17:26:47;;;;;;;7.55;4.45;;;;;;;1.87;87.45;95206.59;10400216;27;98682;-65
2021/12/07 17:31:50;;;;;;;8.23;6.37;;;;;;;1.96;87.46;95206.81;10418455;27;96922;-65
2021/12/07 17:36:54;;;;;;;11.43;7.70;;;;;;;1.83;87.59;95210.34;10399328;27;97815;-65
2021/12/07 17:41:59;;;;;;;10.43;7.53;;;;;;;1.74;87.85;95198.19;10406681;27;97228;-65
2021/12/07 17:47:02;;;;;;;15.07;9.43;;;;;;;1.76;87.58;95191.16;10411299;27;97556;-65
2021/12/07 17:52:06;;;;;;;12.70;8.02;;;;;;;1.73;87.47;95186.25;10409469;27;97041;-65
2021/12/07 17:57:12;;;;;;;11.48;8.25;;;;;;;1.67;87.96;95176.44;10416361;27;103767;-65
2021/12/07 18:02:15;;;;;;;15.82;8.90;;;;;;;1.59;87.68;95168.47;10413957;27;96892;-65
2021/12/07 18:07:18;;;;;;;12.60;7.50;;;;;;;1.65;87.55;95157.72;10403391;27;98570;-63
2021/12/07 18:12:23;;;;;;;11.30;6.75;;;;;;;1.49;88.27;95137.50;10393434;27;96872;-64
2021/12/07 18:17:42;;;;;;;12.00;6.07;;;;;;;1.64;88.05;95136.28;10412499;27;96837;-65
2021/12/07 18:22:45;;;;;;;10.77;6.47;;;;;;;1.65;87.73;95126.81;10395179;27;98087;-65
2021/12/07 18:27:50;;;;;;;9.85;5.63;;;;;;;1.66;88.04;95129.28;10383464;28;96818;-66
2021/12/07 18:32:52;;;;;;;9.15;5.13;;;;;;;1.65;87.72;95111.38;10389896;28;96969;-65
2021/12/07 18:37:56;;;;;;;9.15;5.45;;;;;;;1.60;87.48;95103.19;10387248;28;96700;-65
2021/12/07 18:43:00;;;;;;;10.40;5.68;;;;;;;1.41;88.26;95117.50;10395122;28;97257;-65
2021/12/07 18:48:04;;;;;;;5.45;4.03;;;;;;;1.50;88.15;95103.91;10387251;28;97661;-65
2021/12/07 18:53:08;;;;;;;7.47;4.30;;;;;;;1.71;87.48;95090.28;10384175;28;96873;-65
2021/12/07 18:58:14;;;;;;;7.35;3.35;;;;;;;1.80;87.27;95094.72;10391614;28;97248;-65
2021/12/07 19:03:18;;;;;;;7.30;4.40;;;;;;;1.94;86.88;95085.88;10397504;28;96822;-65
2021/12/07 19:08:20;;;;;;;5.18;3.50;;;;;;;1.94;87.21;95080.75;10395203;28;96847;-65
2021/12/07 19:13:26;;;;;;;4.95;3.58;;;;;;;1.90;86.70;95082.75;10389935;28;96763;-64
2021/12/07 19:18:32;;;;;;;7.68;3.92;;;;;;;2.12;85.81;95062.97;10379793;28;96790;-64
2021/12/07 19:23:37;;;;;;;5.10;3.03;;;;;;;2.02;86.71;95062.06;10410029;28;96854;-65
2021/12/07 19:28:42;;;;;;;5.85;3.30;;;;;;;1.97;86.64;95043.59;10410292;27;96848;-64
2021/12/07 19:33:45;;;;;;;8.52;4.07;;;;;;;1.99;86.42;95031.41;10416672;27;97012;-64
2021/12/07 19:38:50;;;;;;;10.38;4.70;;;;;;;2.17;86.57;95018.81;10415318;27;97336;-66
2021/12/07 19:43:54;;;;;;;10.13;6.10;;;;;;;2.09;86.28;95006.53;10403305;27;98505;-65
2021/12/07 19:48:58;;;;;;;12.03;6.40;;;;;;;2.00;87.14;95002.16;10404381;27;98413;-65
2021/12/07 19:54:04;;;;;;;10.30;6.93;;;;;;;2.16;86.60;94992.19;10399577;27;96963;-64
2021/12/07 19:59:09;;;;;;;9.82;6.57;;;;;;;2.13;86.23;95000.19;10405246;27;99793;-65
2021/12/07 20:04:12;;;;;;;9.73;6.60;;;;;;;2.01;85.95;94999.44;10401944;27;97609;-65
2021/12/07 20:09:16;;;;;;;7.57;4.72;;;;;;;2.02;86.39;94989.94;10402349;28;96821;-64
2021/12/07 20:14:24;;;;;;;7.03;4.40;;;;;;;2.00;86.89;94997.81;10397377;28;100205;-65
2021/12/07 20:19:42;;;;;;;6.78;3.95;;;;;;;1.98;86.98;95001.47;10398615;28;96691;-65
2021/12/07 20:24:46;;;;;;;16.67;6.53;;;;;;;1.89;86.53;94988.38;10405901;28;96880;-65
2021/12/07 20:29:50;;;;;;;6.63;4.00;;;;;;;1.98;87.27;94979.09;10401253;28;97095;-65
2021/12/07 20:34:53;;;;;;;8.50;5.53;;;;;;;2.12;86.37;94965.88;10402988;28;96952;-65
2021/12/07 20:39:58;;;;;;;8.23;4.90;;;;;;;2.17;85.97;94946.66;10403802;27;96939;-65
2021/12/07 20:45:04;;;;;;;16.85;7.78;;;;;;;2.17;86.02;94942.31;10408160;27;96885;-65
2021/12/07 20:50:09;;;;;;;8.68;4.60;;;;;;;2.13;86.59;94952.06;10408528;27;96904;-65
2021/12/07 20:55:12;;;;;;;5.75;3.70;;;;;;;2.22;86.82;94945.31;10406119;27;96908;-65
2021/12/07 21:00:19;;;;;;;5.22;3.38;;;;;;;2.01;86.74;94939.38;10408970;27;96905;-65
2021/12/07 21:05:22;;;;;;;5.53;2.90;;;;;;;1.91;87.19;94934.19;10410079;27;97569;-64
2021/12/07 21:10:33;;;;;;;5.07;3.05;;;;;;;2.07;87.45;94931.16;10416615;27;97295;-65
2021/12/07 21:15:37;;;;;;;4.90;2.97;;;;;;;2.00;87.97;94924.88;10418004;27;96928;-65
2021/12/07 21:20:40;;;;;;;6.28;3.13;;;;;;;2.00;88.03;94927.44;10419362;27;96929;-65
2021/12/07 21:25:43;;;;;;;6.07;3.00;;;;;;;2.06;87.93;94917.47;10401326;27;98259;-65
2021/12/07 21:30:48;;;;;;;4.50;2.58;;;;;;;2.17;88.03;94910.59;10415615;27;97575;-65
2021/12/07 21:35:51;;;;;;;3.90;2.70;;;;;;;2.15;88.23;94902.97;10423831;27;98618;-65
2021/12/07 21:40:54;;;;;;;3.75;2.15;;;;;;;2.18;88.78;94897.59;10404971;27;97274;-65
2021/12/07 21:45:58;;;;;;;3.78;2.40;;;;;;;2.23;88.38;94905.75;10420082;27;96797;-65
2021/12/07 21:51:01;;;;;;;4.97;2.33;;;;;;;2.34;88.30;94896.25;10417692;28;96731;-64
2021/12/07 21:56:05;;;;;;;6.32;3.08;;;;;;;2.33;88.78;94885.13;10415706;27;96720;-64
2021/12/07 22:01:09;;;;;;;5.30;2.65;;;;;;;2.29;88.87;94884.59;10401099;28;96923;-64
2021/12/07 22:06:12;;;;;;;4.60;2.45;;;;;;;2.27;89.05;94894.22;10413415;28;97279;-64
2021/12/07 22:11:16;;;;;;;4.22;2.33;;;;;;;2.25;89.86;94882.38;10412907;27;97900;-64
2021/12/07 22:16:20;;;;;;;4.78;2.95;;;;;;;2.22;89.64;94875.75;10410230;28;97170;-64
2021/12/07 22:21:24;;;;;;;5.37;2.57;;;;;;;2.30;90.42;94878.50;10412364;27;98451;-64
2021/12/07 22:26:27;;;;;;;5.35;2.70;;;;;;;2.33;90.81;94885.13;10406030;27;97067;-64
2021/12/07 22:31:31;;;;;;;3.58;2.13;;;;;;;2.33;90.70;94874.03;10401985;27;99324;-64
2021/12/07 22:36:34;;;;;;;4.82;2.05;;;;;;;2.34;91.20;94883.38;10403953;28;98845;-63
2021/12/07 22:41:37;;;;;;;4.43;2.22;;;;;;;2.34;91.46;94876.47;10408524;28;97366;-64
2021/12/07 22:46:44;;;;;;;4.28;2.60;;;;;;;2.45;91.71;94871.19;10407116;27;96932;-64
2021/12/07 22:51:48;;;;;;;4.27;3.00;;;;;;;2.54;91.39;94872.19;10410310;27;96808;-64
2021/12/07 22:56:52;;;;;;;7.13;3.50;;;;;;;2.56;91.51;94864.31;10406873;27;96928;-64
2021/12/07 23:01:56;;;;;;;5.70;3.58;;;;;;;2.62;91.37;94874.91;10410460;27;98591;-64
2021/12/07 23:07:00;;;;;;;8.57;3.85;;;;;;;2.67;91.20;94872.75;10401626;28;98881;-63
2021/12/07 23:12:03;;;;;;;6.35;3.25;;;;;;;2.75;91.02;94863.53;10401998;27;98505;-64
2021/12/07 23:17:10;;;;;;;6.47;3.42;;;;;;;2.78;91.36;94852.97;10407940;27;96973;-64
2021/12/07 23:22:13;;;;;;;6.70;3.38;;;;;;;2.73;91.51;94863.66;10409170;27;97171;-64
2021/12/07 23:27:16;;;;;;;7.93;3.03;;;;;;;2.74;91.81;94841.28;10410267;27;99205;-64
2021/12/07 23:32:20;;;;;;;5.57;3.00;;;;;;;2.78;91.43;94833.13;10408180;27;96945;-64
2021/12/07 23:37:23;;;;;;;5.17;3.03;;;;;;;2.82;91.68;94841.41;10398502;27;96770;-63
2021/12/07 23:42:26;;;;;;;5.75;3.38;;;;;;;2.87;91.26;94821.19;10407487;27;97037;-64
2021/12/07 23:47:31;;;;;;;6.20;3.47;;;;;;;2.83;91.54;94825.00;10405666;27;99040;-63
2021/12/07 23:52:34;;;;;;;4.25;2.97;;;;;;;2.87;91.61;94826.34;10413264;27;98461;-64
2021/12/07 23:57:38;;;;;;;5.03;3.15;;;;;;;2.86;91.92;94815.22;10393526;28;98103;-64
